sensor_id;sensor_type;location;lat;lon;timestamp;P1;durP1;ratioP1;P2;durP2;ratioP2
36551;SDS011;22559;54.176;12.102;2022-12-18T00:01:00;34.17;;;16.07;;
36551;SDS011;22559;54.176;12.102;2022-12-18T00:03:30;32.00;;;14.30;;
36551;SDS011;22559;54.176;12.102;2022-12-18T00:05:59;36.00;;;16.60;;
36551;SDS011;22559;54.176;12.102;2022-12-18T00:08:25;34.67;;;14.83;;
36551;SDS011;22559;54.176;12.102;2022-12-18T00:10:50;28.73;;;14.37;;
36551;SDS011;22559;54.176;12.102;2022-12-18T00:13:18;33.93;;;14.40;;
36551;SDS011;22559;54.176;12.102;2022-12-18T00:15:44;29.03;;;14.33;;
36551;SDS011;22559;54.176;12.102;2022-12-18T00:18:09;32.60;;;15.70;;
36551;SDS011;22559;54.176;12.102;2022-12-18T00:20:36;30.53;;;15.47;;
36551;SDS011;22559;54.176;12.102;2022-12-18T00:23:03;35.57;;;16.13;;
36551;SDS011;22559;54.176;12.102;2022-12-18T00:25:28;38.23;;;16.63;;
36551;SDS011;22559;54.176;12.102;2022-12-18T00:27:54;30.53;;;14.80;;
36551;SDS011;22559;54.176;12.102;2022-12-18T00:30:20;33.37;;;14.90;;
36551;SDS011;22559;54.176;12.102;2022-12-18T00:32:45;31.50;;;15.67;;
36551;SDS011;22559;54.176;12.102;2022-12-18T00:35:11;29.93;;;15.17;;
36551;SDS011;22559;54.176;12.102;2022-12-18T00:37:36;30.27;;;14.70;;
36551;SDS011;22559;54.176;12.102;2022-12-18T00:40:02;29.43;;;15.53;;
36551;SDS011;22559;54.176;12.102;2022-12-18T00:42:28;30.57;;;14.77;;
36551;SDS011;22559;54.176;12.102;2022-12-18T00:45:12;30.57;;;14.40;;
36551;SDS011;22559;54.176;12.102;2022-12-18T00:47:38;34.57;;;15.13;;
36551;SDS011;22559;54.176;12.102;2022-12-18T00:50:04;29.43;;;13.33;;
36551;SDS011;22559;54.176;12.102;2022-12-18T00:52:30;30.33;;;14.63;;
36551;SDS011;22559;54.176;12.102;2022-12-18T00:54:55;32.50;;;14.73;;
36551;SDS011;22559;54.176;12.102;2022-12-18T00:57:21;31.70;;;15.43;;
36551;SDS011;22559;54.176;12.102;2022-12-18T00:59:47;33.33;;;14.97;;
36551;SDS011;22559;54.176;12.102;2022-12-18T01:02:12;33.13;;;14.63;;
36551;SDS011;22559;54.176;12.102;2022-12-18T01:04:38;29.70;;;14.17;;
36551;SDS011;22559;54.176;12.102;2022-12-18T01:07:04;30.27;;;13.83;;
36551;SDS011;22559;54.176;12.102;2022-12-18T01:09:29;31.97;;;16.27;;
36551;SDS011;22559;54.176;12.102;2022-12-18T01:11:55;29.37;;;14.83;;
36551;SDS011;22559;54.176;12.102;2022-12-18T01:14:20;34.63;;;16.00;;
36551;SDS011;22559;54.176;12.102;2022-12-18T01:16:46;28.93;;;14.27;;
36551;SDS011;22559;54.176;12.102;2022-12-18T01:19:12;36.47;;;15.40;;
36551;SDS011;22559;54.176;12.102;2022-12-18T01:21:37;31.90;;;13.73;;
36551;SDS011;22559;54.176;12.102;2022-12-18T01:24:03;40.43;;;16.53;;
36551;SDS011;22559;54.176;12.102;2022-12-18T01:26:29;36.47;;;15.97;;
36551;SDS011;22559;54.176;12.102;2022-12-18T01:28:55;40.73;;;16.67;;
36551;SDS011;22559;54.176;12.102;2022-12-18T01:31:22;30.17;;;14.63;;
36551;SDS011;22559;54.176;12.102;2022-12-18T01:33:50;36.53;;;14.83;;
36551;SDS011;22559;54.176;12.102;2022-12-18T01:36:18;41.93;;;16.43;;
36551;SDS011;22559;54.176;12.102;2022-12-18T01:38:48;32.20;;;15.57;;
36551;SDS011;22559;54.176;12.102;2022-12-18T01:41:16;32.13;;;16.20;;
36551;SDS011;22559;54.176;12.102;2022-12-18T01:43:54;32.70;;;13.73;;
36551;SDS011;22559;54.176;12.102;2022-12-18T01:46:24;36.63;;;15.47;;
36551;SDS011;22559;54.176;12.102;2022-12-18T01:48:59;35.90;;;16.63;;
36551;SDS011;22559;54.176;12.102;2022-12-18T01:51:26;36.47;;;15.80;;
36551;SDS011;22559;54.176;12.102;2022-12-18T01:53:54;38.17;;;15.80;;
36551;SDS011;22559;54.176;12.102;2022-12-18T01:56:20;33.37;;;15.40;;
36551;SDS011;22559;54.176;12.102;2022-12-18T01:58:58;34.17;;;15.07;;
36551;SDS011;22559;54.176;12.102;2022-12-18T02:01:28;37.63;;;15.57;;
36551;SDS011;22559;54.176;12.102;2022-12-18T02:03:54;33.60;;;15.13;;
36551;SDS011;22559;54.176;12.102;2022-12-18T02:14:41;31.87;;;13.90;;
36551;SDS011;22559;54.176;12.102;2022-12-18T02:28:19;39.93;;;14.93;;
36551;SDS011;22559;54.176;12.102;2022-12-18T02:30:48;31.30;;;13.70;;
36551;SDS011;22559;54.176;12.102;2022-12-18T02:33:15;37.30;;;14.50;;
36551;SDS011;22559;54.176;12.102;2022-12-18T02:35:44;38.90;;;15.30;;
36551;SDS011;22559;54.176;12.102;2022-12-18T02:38:12;38.43;;;16.37;;
36551;SDS011;22559;54.176;12.102;2022-12-18T02:40:39;30.87;;;13.30;;
36551;SDS011;22559;54.176;12.102;2022-12-18T02:43:11;38.90;;;16.17;;
36551;SDS011;22559;54.176;12.102;2022-12-18T02:45:53;39.83;;;15.70;;
36551;SDS011;22559;54.176;12.102;2022-12-18T02:48:25;32.87;;;14.83;;
36551;SDS011;22559;54.176;12.102;2022-12-18T02:53:36;34.40;;;14.40;;
36551;SDS011;22559;54.176;12.102;2022-12-18T02:56:13;37.30;;;15.53;;
36551;SDS011;22559;54.176;12.102;2022-12-18T02:59:00;31.27;;;14.70;;
36551;SDS011;22559;54.176;12.102;2022-12-18T03:01:33;35.90;;;16.07;;
36551;SDS011;22559;54.176;12.102;2022-12-18T03:04:05;41.43;;;16.57;;
36551;SDS011;22559;54.176;12.102;2022-12-18T03:06:41;28.23;;;12.93;;
36551;SDS011;22559;54.176;12.102;2022-12-18T03:09:34;35.33;;;14.77;;
36551;SDS011;22559;54.176;12.102;2022-12-18T03:12:06;34.07;;;15.10;;
36551;SDS011;22559;54.176;12.102;2022-12-18T03:15:37;28.03;;;13.33;;
36551;SDS011;22559;54.176;12.102;2022-12-18T03:17:36;36.20;;;14.70;;
36551;SDS011;22559;54.176;12.102;2022-12-18T03:20:07;35.87;;;16.23;;
36551;SDS011;22559;54.176;12.102;2022-12-18T03:22:37;37.23;;;15.67;;
36551;SDS011;22559;54.176;12.102;2022-12-18T03:25:07;31.80;;;13.87;;
36551;SDS011;22559;54.176;12.102;2022-12-18T03:27:36;35.80;;;14.20;;
36551;SDS011;22559;54.176;12.102;2022-12-18T03:30:07;32.00;;;14.37;;
36551;SDS011;22559;54.176;12.102;2022-12-18T03:35:05;28.80;;;13.67;;
36551;SDS011;22559;54.176;12.102;2022-12-18T03:37:33;30.67;;;14.00;;
36551;SDS011;22559;54.176;12.102;2022-12-18T03:39:59;34.80;;;14.80;;
36551;SDS011;22559;54.176;12.102;2022-12-18T03:42:33;26.07;;;13.00;;
36551;SDS011;22559;54.176;12.102;2022-12-18T03:45:04;32.67;;;14.70;;
36551;SDS011;22559;54.176;12.102;2022-12-18T03:48:13;37.63;;;14.60;;
36551;SDS011;22559;54.176;12.102;2022-12-18T03:50:59;30.13;;;14.27;;
36551;SDS011;22559;54.176;12.102;2022-12-18T03:56:26;35.00;;;14.77;;
36551;SDS011;22559;54.176;12.102;2022-12-18T03:58:56;31.03;;;13.03;;
36551;SDS011;22559;54.176;12.102;2022-12-18T04:01:25;31.27;;;14.50;;
36551;SDS011;22559;54.176;12.102;2022-12-18T04:03:56;28.97;;;13.43;;
36551;SDS011;22559;54.176;12.102;2022-12-18T04:06:24;26.77;;;13.73;;
36551;SDS011;22559;54.176;12.102;2022-12-18T04:08:51;31.67;;;14.03;;
36551;SDS011;22559;54.176;12.102;2022-12-18T04:11:17;25.60;;;12.63;;
36551;SDS011;22559;54.176;12.102;2022-12-18T04:13:43;30.03;;;13.43;;
36551;SDS011;22559;54.176;12.102;2022-12-18T04:16:08;29.07;;;14.00;;
36551;SDS011;22559;54.176;12.102;2022-12-18T04:18:34;29.37;;;13.77;;
36551;SDS011;22559;54.176;12.102;2022-12-18T04:21:01;29.97;;;12.80;;
36551;SDS011;22559;54.176;12.102;2022-12-18T04:23:27;29.90;;;13.70;;
36551;SDS011;22559;54.176;12.102;2022-12-18T04:25:53;26.97;;;12.73;;
36551;SDS011;22559;54.176;12.102;2022-12-18T04:28:19;28.57;;;12.53;;
36551;SDS011;22559;54.176;12.102;2022-12-18T04:30:45;32.80;;;12.97;;
36551;SDS011;22559;54.176;12.102;2022-12-18T04:33:11;29.50;;;13.43;;
36551;SDS011;22559;54.176;12.102;2022-12-18T04:35:38;27.93;;;13.87;;
36551;SDS011;22559;54.176;12.102;2022-12-18T04:38:05;25.63;;;13.27;;
36551;SDS011;22559;54.176;12.102;2022-12-18T04:40:31;34.17;;;13.40;;
36551;SDS011;22559;54.176;12.102;2022-12-18T04:42:57;25.47;;;12.93;;
36551;SDS011;22559;54.176;12.102;2022-12-18T04:45:22;22.80;;;11.40;;
36551;SDS011;22559;54.176;12.102;2022-12-18T04:47:48;24.13;;;11.67;;
36551;SDS011;22559;54.176;12.102;2022-12-18T04:50:14;25.47;;;11.97;;
36551;SDS011;22559;54.176;12.102;2022-12-18T04:52:39;28.23;;;12.87;;
36551;SDS011;22559;54.176;12.102;2022-12-18T04:55:05;27.57;;;12.07;;
36551;SDS011;22559;54.176;12.102;2022-12-18T04:57:31;30.20;;;12.30;;
36551;SDS011;22559;54.176;12.102;2022-12-18T04:59:56;23.67;;;11.00;;
36551;SDS011;22559;54.176;12.102;2022-12-18T05:02:22;25.43;;;11.53;;
36551;SDS011;22559;54.176;12.102;2022-12-18T05:04:48;26.43;;;11.50;;
36551;SDS011;22559;54.176;12.102;2022-12-18T05:07:13;32.97;;;13.03;;
36551;SDS011;22559;54.176;12.102;2022-12-18T05:09:39;28.10;;;12.80;;
36551;SDS011;22559;54.176;12.102;2022-12-18T05:12:05;24.20;;;11.63;;
36551;SDS011;22559;54.176;12.102;2022-12-18T05:14:31;28.10;;;12.53;;
36551;SDS011;22559;54.176;12.102;2022-12-18T05:16:57;24.30;;;10.40;;
36551;SDS011;22559;54.176;12.102;2022-12-18T05:19:22;25.87;;;11.70;;
36551;SDS011;22559;54.176;12.102;2022-12-18T05:21:48;25.17;;;12.40;;
36551;SDS011;22559;54.176;12.102;2022-12-18T05:24:13;24.63;;;11.47;;
36551;SDS011;22559;54.176;12.102;2022-12-18T05:26:39;29.57;;;11.43;;
36551;SDS011;22559;54.176;12.102;2022-12-18T05:29:05;18.07;;;9.30;;
36551;SDS011;22559;54.176;12.102;2022-12-18T05:31:30;26.17;;;10.50;;
36551;SDS011;22559;54.176;12.102;2022-12-18T05:33:56;25.30;;;11.33;;
36551;SDS011;22559;54.176;12.102;2022-12-18T05:36:22;25.00;;;11.83;;
36551;SDS011;22559;54.176;12.102;2022-12-18T05:38:48;23.70;;;12.13;;
36551;SDS011;22559;54.176;12.102;2022-12-18T05:41:13;23.53;;;13.23;;
36551;SDS011;22559;54.176;12.102;2022-12-18T05:43:39;22.40;;;12.17;;
36551;SDS011;22559;54.176;12.102;2022-12-18T05:46:06;31.00;;;12.43;;
36551;SDS011;22559;54.176;12.102;2022-12-18T05:48:33;25.53;;;12.97;;
36551;SDS011;22559;54.176;12.102;2022-12-18T05:51:03;28.20;;;13.13;;
36551;SDS011;22559;54.176;12.102;2022-12-18T05:53:33;21.57;;;11.33;;
36551;SDS011;22559;54.176;12.102;2022-12-18T05:56:00;20.60;;;10.37;;
36551;SDS011;22559;54.176;12.102;2022-12-18T05:58:27;27.73;;;12.00;;
36551;SDS011;22559;54.176;12.102;2022-12-18T06:00:56;20.33;;;9.73;;
36551;SDS011;22559;54.176;12.102;2022-12-18T06:03:21;27.03;;;12.23;;
36551;SDS011;22559;54.176;12.102;2022-12-18T06:05:47;22.73;;;10.23;;
36551;SDS011;22559;54.176;12.102;2022-12-18T06:08:13;26.03;;;11.97;;
36551;SDS011;22559;54.176;12.102;2022-12-18T06:10:39;20.90;;;10.17;;
36551;SDS011;22559;54.176;12.102;2022-12-18T06:13:05;25.97;;;10.37;;
36551;SDS011;22559;54.176;12.102;2022-12-18T06:15:32;20.67;;;10.87;;
36551;SDS011;22559;54.176;12.102;2022-12-18T06:17:58;26.90;;;12.03;;
36551;SDS011;22559;54.176;12.102;2022-12-18T06:20:25;24.03;;;10.97;;
36551;SDS011;22559;54.176;12.102;2022-12-18T06:22:51;27.77;;;10.33;;
36551;SDS011;22559;54.176;12.102;2022-12-18T06:25:17;17.10;;;8.73;;
36551;SDS011;22559;54.176;12.102;2022-12-18T06:27:42;18.40;;;9.50;;
36551;SDS011;22559;54.176;12.102;2022-12-18T06:30:08;18.33;;;10.17;;
36551;SDS011;22559;54.176;12.102;2022-12-18T06:32:34;18.63;;;10.27;;
36551;SDS011;22559;54.176;12.102;2022-12-18T06:35:00;20.10;;;9.90;;
36551;SDS011;22559;54.176;12.102;2022-12-18T06:37:26;21.43;;;10.47;;
36551;SDS011;22559;54.176;12.102;2022-12-18T06:39:52;27.03;;;10.90;;
36551;SDS011;22559;54.176;12.102;2022-12-18T06:42:18;22.07;;;10.27;;
36551;SDS011;22559;54.176;12.102;2022-12-18T06:44:44;19.87;;;10.07;;
36551;SDS011;22559;54.176;12.102;2022-12-18T06:47:09;20.07;;;9.80;;
36551;SDS011;22559;54.176;12.102;2022-12-18T06:49:35;24.13;;;10.87;;
36551;SDS011;22559;54.176;12.102;2022-12-18T06:52:01;25.37;;;10.30;;
36551;SDS011;22559;54.176;12.102;2022-12-18T06:54:26;20.10;;;9.57;;
36551;SDS011;22559;54.176;12.102;2022-12-18T06:56:52;16.03;;;8.93;;
36551;SDS011;22559;54.176;12.102;2022-12-18T06:59:18;23.17;;;9.37;;
36551;SDS011;22559;54.176;12.102;2022-12-18T07:01:43;24.40;;;11.13;;
36551;SDS011;22559;54.176;12.102;2022-12-18T07:04:09;25.77;;;11.87;;
36551;SDS011;22559;54.176;12.102;2022-12-18T07:06:35;23.87;;;11.83;;
36551;SDS011;22559;54.176;12.102;2022-12-18T07:09:00;23.50;;;10.97;;
36551;SDS011;22559;54.176;12.102;2022-12-18T07:11:26;23.23;;;10.57;;
36551;SDS011;22559;54.176;12.102;2022-12-18T07:13:52;22.60;;;10.93;;
36551;SDS011;22559;54.176;12.102;2022-12-18T07:16:21;22.63;;;11.10;;
36551;SDS011;22559;54.176;12.102;2022-12-18T07:18:47;19.37;;;10.00;;
36551;SDS011;22559;54.176;12.102;2022-12-18T07:21:14;19.23;;;9.80;;
36551;SDS011;22559;54.176;12.102;2022-12-18T07:23:41;25.20;;;9.90;;
36551;SDS011;22559;54.176;12.102;2022-12-18T07:26:08;22.50;;;11.47;;
36551;SDS011;22559;54.176;12.102;2022-12-18T07:28:36;27.70;;;10.53;;
36551;SDS011;22559;54.176;12.102;2022-12-18T07:31:03;27.07;;;11.07;;
36551;SDS011;22559;54.176;12.102;2022-12-18T07:33:37;20.43;;;10.70;;
36551;SDS011;22559;54.176;12.102;2022-12-18T07:36:04;19.03;;;9.97;;
36551;SDS011;22559;54.176;12.102;2022-12-18T07:38:31;22.87;;;10.87;;
36551;SDS011;22559;54.176;12.102;2022-12-18T07:41:01;24.80;;;10.23;;
36551;SDS011;22559;54.176;12.102;2022-12-18T07:43:31;23.27;;;10.33;;
36551;SDS011;22559;54.176;12.102;2022-12-18T07:45:57;25.77;;;11.43;;
36551;SDS011;22559;54.176;12.102;2022-12-18T07:48:26;21.97;;;9.90;;
36551;SDS011;22559;54.176;12.102;2022-12-18T07:50:53;22.67;;;11.50;;
36551;SDS011;22559;54.176;12.102;2022-12-18T07:53:21;19.20;;;10.37;;
36551;SDS011;22559;54.176;12.102;2022-12-18T07:55:47;20.60;;;10.93;;
36551;SDS011;22559;54.176;12.102;2022-12-18T07:58:12;20.50;;;10.67;;
36551;SDS011;22559;54.176;12.102;2022-12-18T08:00:38;21.20;;;10.20;;
36551;SDS011;22559;54.176;12.102;2022-12-18T08:03:04;24.90;;;10.23;;
36551;SDS011;22559;54.176;12.102;2022-12-18T08:05:29;24.93;;;11.50;;
36551;SDS011;22559;54.176;12.102;2022-12-18T08:07:58;22.07;;;11.10;;
36551;SDS011;22559;54.176;12.102;2022-12-18T08:10:23;19.60;;;10.27;;
36551;SDS011;22559;54.176;12.102;2022-12-18T08:12:50;17.83;;;10.07;;
36551;SDS011;22559;54.176;12.102;2022-12-18T08:15:16;16.63;;;9.23;;
36551;SDS011;22559;54.176;12.102;2022-12-18T08:17:42;19.93;;;9.70;;
36551;SDS011;22559;54.176;12.102;2022-12-18T08:20:07;18.23;;;9.93;;
36551;SDS011;22559;54.176;12.102;2022-12-18T08:22:34;22.97;;;9.77;;
36551;SDS011;22559;54.176;12.102;2022-12-18T08:25:03;20.10;;;10.23;;
36551;SDS011;22559;54.176;12.102;2022-12-18T08:27:32;18.27;;;10.27;;
36551;SDS011;22559;54.176;12.102;2022-12-18T08:29:59;16.90;;;9.30;;
36551;SDS011;22559;54.176;12.102;2022-12-18T08:32:25;17.77;;;9.07;;
36551;SDS011;22559;54.176;12.102;2022-12-18T08:34:52;21.33;;;9.93;;
36551;SDS011;22559;54.176;12.102;2022-12-18T08:37:17;17.77;;;9.43;;
36551;SDS011;22559;54.176;12.102;2022-12-18T08:39:43;20.67;;;9.17;;
36551;SDS011;22559;54.176;12.102;2022-12-18T08:42:09;16.37;;;8.70;;
36551;SDS011;22559;54.176;12.102;2022-12-18T08:44:59;19.80;;;9.67;;
36551;SDS011;22559;54.176;12.102;2022-12-18T08:47:25;20.03;;;8.77;;
36551;SDS011;22559;54.176;12.102;2022-12-18T08:49:51;21.47;;;11.30;;
36551;SDS011;22559;54.176;12.102;2022-12-18T08:52:16;19.50;;;9.80;;
36551;SDS011;22559;54.176;12.102;2022-12-18T08:54:48;18.87;;;9.20;;
36551;SDS011;22559;54.176;12.102;2022-12-18T08:57:17;17.57;;;8.87;;
36551;SDS011;22559;54.176;12.102;2022-12-18T08:59:43;18.30;;;9.47;;
36551;SDS011;22559;54.176;12.102;2022-12-18T09:02:10;16.57;;;9.43;;
36551;SDS011;22559;54.176;12.102;2022-12-18T09:04:36;19.00;;;9.33;;
36551;SDS011;22559;54.176;12.102;2022-12-18T09:07:02;22.87;;;10.30;;
36551;SDS011;22559;54.176;12.102;2022-12-18T09:09:27;16.30;;;10.13;;
36551;SDS011;22559;54.176;12.102;2022-12-18T09:11:53;22.30;;;10.27;;
36551;SDS011;22559;54.176;12.102;2022-12-18T09:14:19;24.67;;;10.47;;
36551;SDS011;22559;54.176;12.102;2022-12-18T09:16:44;20.57;;;9.00;;
36551;SDS011;22559;54.176;12.102;2022-12-18T09:19:10;20.37;;;9.90;;
36551;SDS011;22559;54.176;12.102;2022-12-18T09:21:36;19.70;;;9.10;;
36551;SDS011;22559;54.176;12.102;2022-12-18T09:24:01;16.00;;;9.30;;
36551;SDS011;22559;54.176;12.102;2022-12-18T09:26:27;16.53;;;10.17;;
36551;SDS011;22559;54.176;12.102;2022-12-18T09:28:53;21.97;;;9.53;;
36551;SDS011;22559;54.176;12.102;2022-12-18T09:31:20;17.00;;;8.80;;
36551;SDS011;22559;54.176;12.102;2022-12-18T09:33:49;21.67;;;10.37;;
36551;SDS011;22559;54.176;12.102;2022-12-18T09:36:24;15.63;;;9.13;;
36551;SDS011;22559;54.176;12.102;2022-12-18T09:38:50;18.90;;;9.43;;
36551;SDS011;22559;54.176;12.102;2022-12-18T09:43:56;21.60;;;9.40;;
36551;SDS011;22559;54.176;12.102;2022-12-18T09:46:36;17.80;;;8.93;;
36551;SDS011;22559;54.176;12.102;2022-12-18T09:49:06;16.17;;;9.10;;
36551;SDS011;22559;54.176;12.102;2022-12-18T09:51:43;18.40;;;9.47;;
36551;SDS011;22559;54.176;12.102;2022-12-18T09:54:16;18.50;;;9.83;;
36551;SDS011;22559;54.176;12.102;2022-12-18T09:56:46;17.10;;;8.77;;
36551;SDS011;22559;54.176;12.102;2022-12-18T10:01:50;19.27;;;8.97;;
36551;SDS011;22559;54.176;12.102;2022-12-18T10:04:19;20.17;;;10.20;;
36551;SDS011;22559;54.176;12.102;2022-12-18T10:26:10;22.40;;;11.37;;
36551;SDS011;22559;54.176;12.102;2022-12-18T10:28:31;20.63;;;10.07;;
36551;SDS011;22559;54.176;12.102;2022-12-18T10:30:58;20.90;;;9.80;;
36551;SDS011;22559;54.176;12.102;2022-12-18T10:33:27;21.97;;;11.20;;
36551;SDS011;22559;54.176;12.102;2022-12-18T10:35:54;24.13;;;9.77;;
36551;SDS011;22559;54.176;12.102;2022-12-18T10:38:38;25.40;;;10.97;;
36551;SDS011;22559;54.176;12.102;2022-12-18T10:47:02;20.57;;;9.87;;
36551;SDS011;22559;54.176;12.102;2022-12-18T10:49:31;21.67;;;11.80;;
36551;SDS011;22559;54.176;12.102;2022-12-18T10:52:05;23.57;;;11.93;;
36551;SDS011;22559;54.176;12.102;2022-12-18T10:54:55;25.27;;;9.90;;
36551;SDS011;22559;54.176;12.102;2022-12-18T10:57:29;17.77;;;9.17;;
36551;SDS011;22559;54.176;12.102;2022-12-18T11:00:36;22.87;;;11.10;;
36551;SDS011;22559;54.176;12.102;2022-12-18T11:02:55;19.70;;;10.17;;
36551;SDS011;22559;54.176;12.102;2022-12-18T11:05:23;20.07;;;10.63;;
36551;SDS011;22559;54.176;12.102;2022-12-18T11:07:57;19.47;;;10.03;;
36551;SDS011;22559;54.176;12.102;2022-12-18T11:10:34;22.47;;;11.87;;
36551;SDS011;22559;54.176;12.102;2022-12-18T11:13:16;24.03;;;11.50;;
36551;SDS011;22559;54.176;12.102;2022-12-18T11:15:47;19.73;;;10.60;;
36551;SDS011;22559;54.176;12.102;2022-12-18T11:18:17;20.00;;;11.27;;
36551;SDS011;22559;54.176;12.102;2022-12-18T11:20:57;23.03;;;10.17;;
36551;SDS011;22559;54.176;12.102;2022-12-18T11:23:30;22.23;;;10.83;;
36551;SDS011;22559;54.176;12.102;2022-12-18T11:25:58;23.77;;;10.53;;
36551;SDS011;22559;54.176;12.102;2022-12-18T11:28:36;19.03;;;9.97;;
36551;SDS011;22559;54.176;12.102;2022-12-18T11:33:37;21.97;;;10.73;;
36551;SDS011;22559;54.176;12.102;2022-12-18T11:36:07;26.00;;;11.70;;
36551;SDS011;22559;54.176;12.102;2022-12-18T11:38:35;24.33;;;11.63;;
36551;SDS011;22559;54.176;12.102;2022-12-18T11:44:33;23.30;;;11.77;;
36551;SDS011;22559;54.176;12.102;2022-12-18T11:47:13;23.63;;;10.87;;
36551;SDS011;22559;54.176;12.102;2022-12-18T11:50:02;24.13;;;11.63;;
36551;SDS011;22559;54.176;12.102;2022-12-18T11:52:39;27.23;;;10.80;;
36551;SDS011;22559;54.176;12.102;2022-12-18T11:55:16;27.50;;;11.90;;
36551;SDS011;22559;54.176;12.102;2022-12-18T11:58:07;24.70;;;11.90;;
36551;SDS011;22559;54.176;12.102;2022-12-18T12:00:56;24.87;;;12.10;;
36551;SDS011;22559;54.176;12.102;2022-12-18T12:06:40;24.83;;;11.80;;
36551;SDS011;22559;54.176;12.102;2022-12-18T12:09:10;21.43;;;11.17;;
36551;SDS011;22559;54.176;12.102;2022-12-18T12:20:00;24.47;;;12.33;;
36551;SDS011;22559;54.176;12.102;2022-12-18T12:25:17;31.20;;;10.23;;
36551;SDS011;22559;54.176;12.102;2022-12-18T12:33:57;21.03;;;10.73;;
36551;SDS011;22559;54.176;12.102;2022-12-18T12:36:32;23.43;;;10.83;;
36551;SDS011;22559;54.176;12.102;2022-12-18T12:39:11;21.43;;;10.23;;
36551;SDS011;22559;54.176;12.102;2022-12-18T12:41:43;20.70;;;9.63;;
36551;SDS011;22559;54.176;12.102;2022-12-18T12:44:31;22.20;;;10.57;;
36551;SDS011;22559;54.176;12.102;2022-12-18T12:47:24;23.17;;;11.50;;
36551;SDS011;22559;54.176;12.102;2022-12-18T12:50:01;20.80;;;9.87;;
36551;SDS011;22559;54.176;12.102;2022-12-18T12:52:32;20.23;;;10.87;;
36551;SDS011;22559;54.176;12.102;2022-12-18T12:55:03;24.63;;;11.47;;
36551;SDS011;22559;54.176;12.102;2022-12-18T12:57:36;22.77;;;11.43;;
36551;SDS011;22559;54.176;12.102;2022-12-18T13:00:24;26.07;;;11.63;;
36551;SDS011;22559;54.176;12.102;2022-12-18T13:05:49;25.53;;;10.93;;
36551;SDS011;22559;54.176;12.102;2022-12-18T13:10:53;24.43;;;11.80;;
36551;SDS011;22559;54.176;12.102;2022-12-18T13:13:47;21.37;;;11.97;;
36551;SDS011;22559;54.176;12.102;2022-12-18T13:16:14;27.97;;;12.67;;
36551;SDS011;22559;54.176;12.102;2022-12-18T13:18:51;26.47;;;11.87;;
36551;SDS011;22559;54.176;12.102;2022-12-18T13:23:48;22.70;;;11.50;;
36551;SDS011;22559;54.176;12.102;2022-12-18T13:31:12;22.87;;;11.40;;
36551;SDS011;22559;54.176;12.102;2022-12-18T13:39:08;27.53;;;12.57;;
36551;SDS011;22559;54.176;12.102;2022-12-18T13:41:33;27.63;;;12.00;;
36551;SDS011;22559;54.176;12.102;2022-12-18T13:46:52;26.17;;;12.73;;
36551;SDS011;22559;54.176;12.102;2022-12-18T13:51:48;26.87;;;12.83;;
36551;SDS011;22559;54.176;12.102;2022-12-18T13:56:49;24.47;;;12.73;;
36551;SDS011;22559;54.176;12.102;2022-12-18T14:01:50;22.17;;;11.10;;
36551;SDS011;22559;54.176;12.102;2022-12-18T14:07:33;21.47;;;11.07;;
36551;SDS011;22559;54.176;12.102;2022-12-18T14:09:59;26.13;;;12.90;;
36551;SDS011;22559;54.176;12.102;2022-12-18T14:12:33;23.27;;;12.40;;
36551;SDS011;22559;54.176;12.102;2022-12-18T14:17:55;34.43;;;13.60;;
36551;SDS011;22559;54.176;12.102;2022-12-18T14:20:25;29.83;;;14.23;;
36551;SDS011;22559;54.176;12.102;2022-12-18T14:22:51;28.70;;;13.30;;
36551;SDS011;22559;54.176;12.102;2022-12-18T14:25:19;32.63;;;14.13;;
36551;SDS011;22559;54.176;12.102;2022-12-18T14:28:31;26.47;;;12.53;;
36551;SDS011;22559;54.176;12.102;2022-12-18T14:30:34;29.47;;;13.77;;
36551;SDS011;22559;54.176;12.102;2022-12-18T14:33:03;25.70;;;13.13;;
36551;SDS011;22559;54.176;12.102;2022-12-18T14:35:35;35.47;;;13.63;;
36551;SDS011;22559;54.176;12.102;2022-12-18T14:38:11;32.33;;;15.40;;
36551;SDS011;22559;54.176;12.102;2022-12-18T14:40:46;33.93;;;14.30;;
36551;SDS011;22559;54.176;12.102;2022-12-18T14:43:12;32.67;;;15.40;;
36551;SDS011;22559;54.176;12.102;2022-12-18T14:45:39;29.07;;;14.03;;
36551;SDS011;22559;54.176;12.102;2022-12-18T14:50:41;30.63;;;13.77;;
36551;SDS011;22559;54.176;12.102;2022-12-18T14:53:20;37.70;;;15.27;;
36551;SDS011;22559;54.176;12.102;2022-12-18T14:56:14;31.17;;;14.40;;
36551;SDS011;22559;54.176;12.102;2022-12-18T14:58:47;31.93;;;14.17;;
36551;SDS011;22559;54.176;12.102;2022-12-18T15:01:25;27.00;;;13.17;;
36551;SDS011;22559;54.176;12.102;2022-12-18T15:04:02;32.03;;;13.97;;
36551;SDS011;22559;54.176;12.102;2022-12-18T15:06:36;30.63;;;13.93;;
36551;SDS011;22559;54.176;12.102;2022-12-18T15:09:25;37.47;;;15.27;;
36551;SDS011;22559;54.176;12.102;2022-12-18T15:11:55;29.73;;;14.60;;
36551;SDS011;22559;54.176;12.102;2022-12-18T15:14:23;28.63;;;14.40;;
36551;SDS011;22559;54.176;12.102;2022-12-18T15:16:57;34.47;;;14.10;;
36551;SDS011;22559;54.176;12.102;2022-12-18T15:19:30;32.17;;;14.60;;
36551;SDS011;22559;54.176;12.102;2022-12-18T15:21:57;28.53;;;14.17;;
36551;SDS011;22559;54.176;12.102;2022-12-18T15:24:26;29.67;;;14.43;;
36551;SDS011;22559;54.176;12.102;2022-12-18T15:26:55;31.67;;;14.83;;
36551;SDS011;22559;54.176;12.102;2022-12-18T15:29:21;30.07;;;13.23;;
36551;SDS011;22559;54.176;12.102;2022-12-18T15:32:00;29.13;;;13.33;;
36551;SDS011;22559;54.176;12.102;2022-12-18T15:34:28;30.33;;;14.27;;
36551;SDS011;22559;54.176;12.102;2022-12-18T15:36:53;30.53;;;14.43;;
36551;SDS011;22559;54.176;12.102;2022-12-18T15:39:19;31.50;;;13.47;;
36551;SDS011;22559;54.176;12.102;2022-12-18T15:41:45;30.83;;;14.23;;
36551;SDS011;22559;54.176;12.102;2022-12-18T15:44:29;31.37;;;12.53;;
36551;SDS011;22559;54.176;12.102;2022-12-18T15:46:55;33.57;;;14.80;;
36551;SDS011;22559;54.176;12.102;2022-12-18T15:49:21;29.00;;;14.17;;
36551;SDS011;22559;54.176;12.102;2022-12-18T15:51:49;28.93;;;13.20;;
36551;SDS011;22559;54.176;12.102;2022-12-18T15:54:18;30.17;;;13.40;;
36551;SDS011;22559;54.176;12.102;2022-12-18T15:57:04;33.23;;;14.23;;
36551;SDS011;22559;54.176;12.102;2022-12-18T15:59:48;33.17;;;14.93;;
36551;SDS011;22559;54.176;12.102;2022-12-18T16:02:16;31.60;;;14.20;;
36551;SDS011;22559;54.176;12.102;2022-12-18T16:04:43;33.77;;;14.57;;
36551;SDS011;22559;54.176;12.102;2022-12-18T16:07:09;27.43;;;12.70;;
36551;SDS011;22559;54.176;12.102;2022-12-18T16:09:35;34.03;;;14.43;;
36551;SDS011;22559;54.176;12.102;2022-12-18T16:12:01;31.73;;;13.87;;
36551;SDS011;22559;54.176;12.102;2022-12-18T16:14:30;31.77;;;14.17;;
36551;SDS011;22559;54.176;12.102;2022-12-18T16:17:01;31.37;;;12.67;;
36551;SDS011;22559;54.176;12.102;2022-12-18T16:19:30;26.90;;;13.43;;
36551;SDS011;22559;54.176;12.102;2022-12-18T16:21:56;39.50;;;14.73;;
36551;SDS011;22559;54.176;12.102;2022-12-18T16:24:27;26.53;;;10.40;;
36551;SDS011;22559;54.176;12.102;2022-12-18T16:26:55;30.60;;;12.47;;